sensor_id;sensor_type;location;lat;lon;timestamp;P1;durP1;ratioP1;P2;durP2;ratioP2
5876;SDS011;2964;42.144;24.730;2023-11-19T00:00:04;4.20;;;4.10;;
5876;SDS011;2964;42.144;24.730;2023-11-19T00:02:36;4.80;;;4.50;;
5876;SDS011;2964;42.144;24.730;2023-11-19T00:05:03;3.77;;;3.67;;
5876;SDS011;2964;42.144;24.730;2023-11-19T00:07:30;4.13;;;4.03;;
5876;SDS011;2964;42.144;24.730;2023-11-19T00:09:58;3.60;;;3.40;;
5876;SDS011;2964;42.144;24.730;2023-11-19T00:12:34;3.90;;;3.73;;
5876;SDS011;2964;42.144;24.730;2023-11-19T00:15:01;3.67;;;3.57;;
5876;SDS011;2964;42.144;24.730;2023-11-19T00:17:30;4.23;;;3.33;;
5876;SDS011;2964;42.144;24.730;2023-11-19T00:19:57;3.63;;;3.53;;
5876;SDS011;2964;42.144;24.730;2023-11-19T00:22:24;4.10;;;4.00;;
5876;SDS011;2964;42.144;24.730;2023-11-19T00:24:51;4.00;;;3.90;;
5876;SDS011;2964;42.144;24.730;2023-11-19T00:27:19;4.40;;;4.30;;
5876;SDS011;2964;42.144;24.730;2023-11-19T00:29:45;4.20;;;3.83;;
5876;SDS011;2964;42.144;24.730;2023-11-19T00:32:12;4.50;;;4.37;;
5876;SDS011;2964;42.144;24.730;2023-11-19T00:34:39;5.30;;;3.93;;
5876;SDS011;2964;42.144;24.730;2023-11-19T00:37:06;4.30;;;4.13;;
5876;SDS011;2964;42.144;24.730;2023-11-19T00:39:33;3.80;;;3.70;;
5876;SDS011;2964;42.144;24.730;2023-11-19T00:41:59;4.13;;;4.03;;
5876;SDS011;2964;42.144;24.730;2023-11-19T00:44:27;4.03;;;3.93;;
5876;SDS011;2964;42.144;24.730;2023-11-19T00:46:54;3.53;;;3.40;;
5876;SDS011;2964;42.144;24.730;2023-11-19T00:49:21;3.80;;;3.70;;
5876;SDS011;2964;42.144;24.730;2023-11-19T00:51:48;3.77;;;3.67;;
5876;SDS011;2964;42.144;24.730;2023-11-19T00:54:15;4.00;;;3.90;;
5876;SDS011;2964;42.144;24.730;2023-11-19T00:56:41;3.93;;;3.83;;
5876;SDS011;2964;42.144;24.730;2023-11-19T00:59:08;4.17;;;3.97;;
5876;SDS011;2964;42.144;24.730;2023-11-19T01:01:36;4.07;;;3.77;;
5876;SDS011;2964;42.144;24.730;2023-11-19T01:04:03;3.80;;;3.63;;
5876;SDS011;2964;42.144;24.730;2023-11-19T01:06:30;3.60;;;3.50;;
5876;SDS011;2964;42.144;24.730;2023-11-19T01:08:58;3.80;;;3.70;;
5876;SDS011;2964;42.144;24.730;2023-11-19T01:11:25;4.00;;;3.90;;
5876;SDS011;2964;42.144;24.730;2023-11-19T01:13:53;3.90;;;3.60;;
5876;SDS011;2964;42.144;24.730;2023-11-19T01:16:20;9.07;;;4.10;;
5876;SDS011;2964;42.144;24.730;2023-11-19T01:18:48;3.77;;;3.67;;
5876;SDS011;2964;42.144;24.730;2023-11-19T01:21:15;4.93;;;3.70;;
5876;SDS011;2964;42.144;24.730;2023-11-19T01:23:42;3.90;;;3.80;;
5876;SDS011;2964;42.144;24.730;2023-11-19T01:26:09;3.53;;;3.43;;
5876;SDS011;2964;42.144;24.730;2023-11-19T01:28:37;3.87;;;3.77;;
5876;SDS011;2964;42.144;24.730;2023-11-19T01:31:09;4.00;;;3.63;;
5876;SDS011;2964;42.144;24.730;2023-11-19T01:33:37;3.90;;;3.80;;
5876;SDS011;2964;42.144;24.730;2023-11-19T01:36:06;4.17;;;4.07;;
5876;SDS011;2964;42.144;24.730;2023-11-19T01:38:33;3.63;;;3.53;;
5876;SDS011;2964;42.144;24.730;2023-11-19T01:41:00;3.97;;;3.87;;
5876;SDS011;2964;42.144;24.730;2023-11-19T01:43:31;4.47;;;4.37;;
5876;SDS011;2964;42.144;24.730;2023-11-19T01:46:00;3.60;;;3.50;;
5876;SDS011;2964;42.144;24.730;2023-11-19T01:48:27;3.57;;;3.47;;
5876;SDS011;2964;42.144;24.730;2023-11-19T01:50:54;3.90;;;3.70;;
5876;SDS011;2964;42.144;24.730;2023-11-19T01:53:23;4.03;;;3.90;;
5876;SDS011;2964;42.144;24.730;2023-11-19T01:55:51;4.07;;;3.97;;
5876;SDS011;2964;42.144;24.730;2023-11-19T01:58:18;4.07;;;3.87;;
5876;SDS011;2964;42.144;24.730;2023-11-19T02:00:45;3.17;;;3.07;;
5876;SDS011;2964;42.144;24.730;2023-11-19T02:03:12;3.77;;;3.67;;
5876;SDS011;2964;42.144;24.730;2023-11-19T02:05:39;4.17;;;3.90;;
5876;SDS011;2964;42.144;24.730;2023-11-19T02:08:06;4.40;;;4.20;;
5876;SDS011;2964;42.144;24.730;2023-11-19T02:10:34;4.07;;;3.77;;
5876;SDS011;2964;42.144;24.730;2023-11-19T02:13:01;3.93;;;3.77;;
5876;SDS011;2964;42.144;24.730;2023-11-19T02:15:30;4.13;;;4.03;;
5876;SDS011;2964;42.144;24.730;2023-11-19T02:17:57;4.17;;;3.97;;
5876;SDS011;2964;42.144;24.730;2023-11-19T02:20:43;4.20;;;4.10;;
5876;SDS011;2964;42.144;24.730;2023-11-19T02:23:09;4.10;;;3.80;;
5876;SDS011;2964;42.144;24.730;2023-11-19T02:25:37;4.33;;;4.03;;
5876;SDS011;2964;42.144;24.730;2023-11-19T02:28:07;3.70;;;3.60;;
5876;SDS011;2964;42.144;24.730;2023-11-19T02:30:37;3.97;;;3.87;;
5876;SDS011;2964;42.144;24.730;2023-11-19T02:33:03;3.90;;;3.80;;
5876;SDS011;2964;42.144;24.730;2023-11-19T02:35:31;4.47;;;4.17;;
5876;SDS011;2964;42.144;24.730;2023-11-19T02:37:58;4.90;;;3.80;;
5876;SDS011;2964;42.144;24.730;2023-11-19T02:40:26;4.07;;;3.97;;
5876;SDS011;2964;42.144;24.730;2023-11-19T02:42:52;4.17;;;4.07;;
5876;SDS011;2964;42.144;24.730;2023-11-19T02:45:22;4.73;;;4.60;;
5876;SDS011;2964;42.144;24.730;2023-11-19T02:47:50;4.10;;;4.00;;
5876;SDS011;2964;42.144;24.730;2023-11-19T02:50:17;3.90;;;3.80;;
5876;SDS011;2964;42.144;24.730;2023-11-19T02:52:50;4.73;;;4.53;;
5876;SDS011;2964;42.144;24.730;2023-11-19T02:55:18;3.90;;;3.80;;
5876;SDS011;2964;42.144;24.730;2023-11-19T02:57:45;4.43;;;4.23;;
5876;SDS011;2964;42.144;24.730;2023-11-19T03:00:14;4.40;;;4.10;;
5876;SDS011;2964;42.144;24.730;2023-11-19T03:02:43;4.20;;;4.10;;
5876;SDS011;2964;42.144;24.730;2023-11-19T03:05:12;3.83;;;3.73;;
5876;SDS011;2964;42.144;24.730;2023-11-19T03:07:40;4.17;;;4.07;;
5876;SDS011;2964;42.144;24.730;2023-11-19T03:10:08;4.60;;;4.50;;
5876;SDS011;2964;42.144;24.730;2023-11-19T03:12:38;3.80;;;3.70;;
5876;SDS011;2964;42.144;24.730;2023-11-19T03:15:05;3.93;;;3.83;;
5876;SDS011;2964;42.144;24.730;2023-11-19T03:17:34;4.40;;;4.20;;
5876;SDS011;2964;42.144;24.730;2023-11-19T03:20:03;3.60;;;3.50;;
5876;SDS011;2964;42.144;24.730;2023-11-19T03:22:31;4.67;;;4.53;;
5876;SDS011;2964;42.144;24.730;2023-11-19T03:25:00;4.60;;;4.40;;
5876;SDS011;2964;42.144;24.730;2023-11-19T03:27:26;4.20;;;4.10;;
5876;SDS011;2964;42.144;24.730;2023-11-19T03:29:53;4.17;;;4.07;;
5876;SDS011;2964;42.144;24.730;2023-11-19T03:32:20;4.70;;;4.50;;
5876;SDS011;2964;42.144;24.730;2023-11-19T03:34:46;4.57;;;4.37;;
5876;SDS011;2964;42.144;24.730;2023-11-19T03:37:14;4.13;;;4.03;;
5876;SDS011;2964;42.144;24.730;2023-11-19T03:39:42;7.23;;;4.37;;
5876;SDS011;2964;42.144;24.730;2023-11-19T03:42:09;4.77;;;4.57;;
5876;SDS011;2964;42.144;24.730;2023-11-19T03:44:36;4.53;;;4.43;;
5876;SDS011;2964;42.144;24.730;2023-11-19T03:47:03;4.73;;;4.53;;
5876;SDS011;2964;42.144;24.730;2023-11-19T03:49:31;4.40;;;4.23;;
5876;SDS011;2964;42.144;24.730;2023-11-19T03:51:57;4.27;;;4.17;;
5876;SDS011;2964;42.144;24.730;2023-11-19T03:54:26;4.90;;;4.60;;
5876;SDS011;2964;42.144;24.730;2023-11-19T03:56:52;4.73;;;4.53;;
5876;SDS011;2964;42.144;24.730;2023-11-19T03:59:19;4.37;;;4.23;;
5876;SDS011;2964;42.144;24.730;2023-11-19T04:01:46;4.90;;;4.60;;
5876;SDS011;2964;42.144;24.730;2023-11-19T04:04:13;4.40;;;4.20;;
5876;SDS011;2964;42.144;24.730;2023-11-19T04:06:40;4.63;;;4.43;;
5876;SDS011;2964;42.144;24.730;2023-11-19T04:09:06;5.00;;;4.80;;
5876;SDS011;2964;42.144;24.730;2023-11-19T04:11:35;4.33;;;4.23;;
5876;SDS011;2964;42.144;24.730;2023-11-19T04:14:02;4.50;;;4.30;;
5876;SDS011;2964;42.144;24.730;2023-11-19T04:16:28;4.60;;;4.40;;
5876;SDS011;2964;42.144;24.730;2023-11-19T04:18:55;4.60;;;4.40;;
5876;SDS011;2964;42.144;24.730;2023-11-19T04:21:22;4.40;;;4.30;;
5876;SDS011;2964;42.144;24.730;2023-11-19T04:23:49;4.70;;;4.43;;
5876;SDS011;2964;42.144;24.730;2023-11-19T04:26:16;12.37;;;4.67;;
5876;SDS011;2964;42.144;24.730;2023-11-19T04:28:44;4.67;;;4.47;;
5876;SDS011;2964;42.144;24.730;2023-11-19T04:31:10;4.40;;;4.20;;
5876;SDS011;2964;42.144;24.730;2023-11-19T04:33:37;4.17;;;4.07;;
5876;SDS011;2964;42.144;24.730;2023-11-19T04:36:04;4.80;;;4.60;;
5876;SDS011;2964;42.144;24.730;2023-11-19T04:38:32;4.70;;;4.50;;
5876;SDS011;2964;42.144;24.730;2023-11-19T04:40:59;4.90;;;4.70;;
5876;SDS011;2964;42.144;24.730;2023-11-19T04:43:26;5.03;;;4.63;;
5876;SDS011;2964;42.144;24.730;2023-11-19T04:45:54;4.83;;;4.63;;
5876;SDS011;2964;42.144;24.730;2023-11-19T04:48:21;5.20;;;5.00;;
5876;SDS011;2964;42.144;24.730;2023-11-19T04:50:47;4.93;;;4.73;;
5876;SDS011;2964;42.144;24.730;2023-11-19T04:53:13;5.13;;;4.93;;
5876;SDS011;2964;42.144;24.730;2023-11-19T04:55:40;4.80;;;4.70;;
5876;SDS011;2964;42.144;24.730;2023-11-19T04:58:07;4.83;;;4.63;;
5876;SDS011;2964;42.144;24.730;2023-11-19T05:00:34;4.90;;;4.70;;
5876;SDS011;2964;42.144;24.730;2023-11-19T05:03:02;4.90;;;4.70;;
5876;SDS011;2964;42.144;24.730;2023-11-19T05:05:29;5.10;;;4.90;;
5876;SDS011;2964;42.144;24.730;2023-11-19T05:07:55;5.07;;;4.80;;
5876;SDS011;2964;42.144;24.730;2023-11-19T05:10:22;4.90;;;4.70;;
5876;SDS011;2964;42.144;24.730;2023-11-19T05:12:50;4.70;;;4.33;;
5876;SDS011;2964;42.144;24.730;2023-11-19T05:15:16;5.70;;;5.27;;
5876;SDS011;2964;42.144;24.730;2023-11-19T05:17:43;5.27;;;4.80;;
5876;SDS011;2964;42.144;24.730;2023-11-19T05:20:11;5.10;;;4.90;;
5876;SDS011;2964;42.144;24.730;2023-11-19T05:22:39;5.13;;;4.87;;
5876;SDS011;2964;42.144;24.730;2023-11-19T05:25:07;4.40;;;4.20;;
5876;SDS011;2964;42.144;24.730;2023-11-19T05:27:34;5.30;;;5.10;;
5876;SDS011;2964;42.144;24.730;2023-11-19T05:30:01;4.90;;;4.70;;
5876;SDS011;2964;42.144;24.730;2023-11-19T05:32:28;5.17;;;4.87;;
5876;SDS011;2964;42.144;24.730;2023-11-19T05:34:55;4.87;;;4.67;;
5876;SDS011;2964;42.144;24.730;2023-11-19T05:37:23;4.73;;;4.57;;
5876;SDS011;2964;42.144;24.730;2023-11-19T05:39:50;5.10;;;4.70;;
5876;SDS011;2964;42.144;24.730;2023-11-19T05:42:17;4.93;;;4.73;;
5876;SDS011;2964;42.144;24.730;2023-11-19T05:44:44;4.77;;;4.57;;
5876;SDS011;2964;42.144;24.730;2023-11-19T05:47:11;5.47;;;5.03;;
5876;SDS011;2964;42.144;24.730;2023-11-19T05:49:38;4.93;;;4.63;;
5876;SDS011;2964;42.144;24.730;2023-11-19T05:52:05;4.50;;;4.30;;
5876;SDS011;2964;42.144;24.730;2023-11-19T05:54:34;4.60;;;4.40;;
5876;SDS011;2964;42.144;24.730;2023-11-19T05:57:03;4.53;;;4.23;;
5876;SDS011;2964;42.144;24.730;2023-11-19T05:59:30;4.40;;;4.20;;
5876;SDS011;2964;42.144;24.730;2023-11-19T06:01:58;4.73;;;4.53;;
5876;SDS011;2964;42.144;24.730;2023-11-19T06:04:25;4.90;;;4.70;;
5876;SDS011;2964;42.144;24.730;2023-11-19T06:06:52;4.60;;;4.40;;
5876;SDS011;2964;42.144;24.730;2023-11-19T06:09:20;4.63;;;4.43;;
5876;SDS011;2964;42.144;24.730;2023-11-19T06:11:49;4.57;;;4.37;;
5876;SDS011;2964;42.144;24.730;2023-11-19T06:14:17;4.60;;;4.30;;
5876;SDS011;2964;42.144;24.730;2023-11-19T06:16:44;4.80;;;4.60;;
5876;SDS011;2964;42.144;24.730;2023-11-19T06:19:11;4.43;;;4.23;;
5876;SDS011;2964;42.144;24.730;2023-11-19T06:21:38;4.87;;;4.67;;
5876;SDS011;2964;42.144;24.730;2023-11-19T06:24:04;4.40;;;4.20;;
5876;SDS011;2964;42.144;24.730;2023-11-19T06:26:31;4.27;;;4.10;;
5876;SDS011;2964;42.144;24.730;2023-11-19T06:28:59;4.60;;;4.40;;
5876;SDS011;2964;42.144;24.730;2023-11-19T06:31:26;4.70;;;4.50;;
5876;SDS011;2964;42.144;24.730;2023-11-19T06:33:56;4.20;;;3.90;;
5876;SDS011;2964;42.144;24.730;2023-11-19T06:36:24;4.67;;;4.37;;
5876;SDS011;2964;42.144;24.730;2023-11-19T06:38:51;4.30;;;4.03;;
5876;SDS011;2964;42.144;24.730;2023-11-19T06:41:18;4.33;;;4.13;;
5876;SDS011;2964;42.144;24.730;2023-11-19T06:43:45;29.73;;;5.77;;
5876;SDS011;2964;42.144;24.730;2023-11-19T06:46:16;5.40;;;5.10;;
5876;SDS011;2964;42.144;24.730;2023-11-19T06:48:43;4.33;;;4.13;;
5876;SDS011;2964;42.144;24.730;2023-11-19T06:51:10;4.53;;;4.23;;
5876;SDS011;2964;42.144;24.730;2023-11-19T06:53:37;4.30;;;4.17;;
5876;SDS011;2964;42.144;24.730;2023-11-19T06:56:05;5.13;;;4.87;;
5876;SDS011;2964;42.144;24.730;2023-11-19T06:58:35;4.30;;;4.10;;
5876;SDS011;2964;42.144;24.730;2023-11-19T07:01:02;4.10;;;3.90;;
5876;SDS011;2964;42.144;24.730;2023-11-19T07:03:31;5.00;;;4.73;;
5876;SDS011;2964;42.144;24.730;2023-11-19T07:05:57;4.20;;;4.00;;
5876;SDS011;2964;42.144;24.730;2023-11-19T07:08:30;4.70;;;4.50;;
5876;SDS011;2964;42.144;24.730;2023-11-19T07:10:57;4.80;;;4.60;;
5876;SDS011;2964;42.144;24.730;2023-11-19T07:13:24;4.77;;;4.53;;
5876;SDS011;2964;42.144;24.730;2023-11-19T07:15:53;4.97;;;4.70;;
5876;SDS011;2964;42.144;24.730;2023-11-19T07:18:19;5.63;;;5.33;;
5876;SDS011;2964;42.144;24.730;2023-11-19T07:20:48;4.63;;;4.43;;
5876;SDS011;2964;42.144;24.730;2023-11-19T07:23:15;4.20;;;4.00;;
5876;SDS011;2964;42.144;24.730;2023-11-19T07:25:42;4.60;;;4.40;;
5876;SDS011;2964;42.144;24.730;2023-11-19T07:28:10;4.80;;;4.60;;
5876;SDS011;2964;42.144;24.730;2023-11-19T07:30:37;4.40;;;4.20;;
5876;SDS011;2964;42.144;24.730;2023-11-19T07:33:03;4.07;;;3.97;;
5876;SDS011;2964;42.144;24.730;2023-11-19T07:35:30;4.70;;;4.50;;
5876;SDS011;2964;42.144;24.730;2023-11-19T07:37:58;4.37;;;4.17;;
5876;SDS011;2964;42.144;24.730;2023-11-19T07:40:25;4.80;;;4.47;;
5876;SDS011;2964;42.144;24.730;2023-11-19T07:42:52;4.10;;;4.00;;
5876;SDS011;2964;42.144;24.730;2023-11-19T07:45:19;5.00;;;4.70;;
5876;SDS011;2964;42.144;24.730;2023-11-19T07:47:46;4.60;;;4.40;;
5876;SDS011;2964;42.144;24.730;2023-11-19T07:50:12;4.20;;;4.00;;
5876;SDS011;2964;42.144;24.730;2023-11-19T07:52:42;4.07;;;3.87;;
5876;SDS011;2964;42.144;24.730;2023-11-19T07:55:10;4.07;;;3.87;;
5876;SDS011;2964;42.144;24.730;2023-11-19T07:57:37;3.80;;;3.70;;
5876;SDS011;2964;42.144;24.730;2023-11-19T08:00:04;4.83;;;4.40;;
5876;SDS011;2964;42.144;24.730;2023-11-19T08:02:31;4.60;;;4.27;;
5876;SDS011;2964;42.144;24.730;2023-11-19T08:04:58;4.60;;;4.30;;
5876;SDS011;2964;42.144;24.730;2023-11-19T08:07:25;4.77;;;4.57;;
5876;SDS011;2964;42.144;24.730;2023-11-19T08:09:52;4.37;;;4.07;;
5876;SDS011;2964;42.144;24.730;2023-11-19T08:12:20;5.83;;;4.70;;
5876;SDS011;2964;42.144;24.730;2023-11-19T08:14:46;4.43;;;4.33;;
5876;SDS011;2964;42.144;24.730;2023-11-19T08:17:14;4.60;;;4.40;;
5876;SDS011;2964;42.144;24.730;2023-11-19T08:19:41;4.10;;;3.83;;
5876;SDS011;2964;42.144;24.730;2023-11-19T08:22:07;4.43;;;4.07;;
5876;SDS011;2964;42.144;24.730;2023-11-19T08:24:35;4.40;;;4.20;;
5876;SDS011;2964;42.144;24.730;2023-11-19T08:27:01;3.97;;;3.87;;
5876;SDS011;2964;42.144;24.730;2023-11-19T08:29:30;4.67;;;4.47;;
5876;SDS011;2964;42.144;24.730;2023-11-19T08:31:56;4.00;;;3.80;;
5876;SDS011;2964;42.144;24.730;2023-11-19T08:34:23;4.27;;;4.07;;
5876;SDS011;2964;42.144;24.730;2023-11-19T08:36:50;4.30;;;4.00;;
5876;SDS011;2964;42.144;24.730;2023-11-19T08:39:18;4.57;;;4.23;;
5876;SDS011;2964;42.144;24.730;2023-11-19T08:41:46;4.43;;;4.23;;
5876;SDS011;2964;42.144;24.730;2023-11-19T08:44:12;4.53;;;4.23;;
5876;SDS011;2964;42.144;24.730;2023-11-19T08:46:47;4.77;;;4.47;;
5876;SDS011;2964;42.144;24.730;2023-11-19T08:49:14;4.90;;;4.70;;
5876;SDS011;2964;42.144;24.730;2023-11-19T08:51:40;4.23;;;4.13;;
5876;SDS011;2964;42.144;24.730;2023-11-19T08:54:07;5.03;;;4.83;;
5876;SDS011;2964;42.144;24.730;2023-11-19T08:56:34;4.63;;;4.50;;
5876;SDS011;2964;42.144;24.730;2023-11-19T08:59:01;5.23;;;5.03;;
5876;SDS011;2964;42.144;24.730;2023-11-19T09:01:27;5.37;;;5.10;;
5876;SDS011;2964;42.144;24.730;2023-11-19T09:03:56;4.80;;;4.60;;
5876;SDS011;2964;42.144;24.730;2023-11-19T09:06:23;5.67;;;4.37;;
5876;SDS011;2964;42.144;24.730;2023-11-19T09:08:49;4.70;;;4.50;;
5876;SDS011;2964;42.144;24.730;2023-11-19T09:11:16;5.17;;;4.60;;
5876;SDS011;2964;42.144;24.730;2023-11-19T09:13:43;4.80;;;4.60;;
5876;SDS011;2964;42.144;24.730;2023-11-19T09:16:11;5.10;;;4.90;;
5876;SDS011;2964;42.144;24.730;2023-11-19T09:18:38;4.70;;;4.50;;
5876;SDS011;2964;42.144;24.730;2023-11-19T09:21:06;5.40;;;5.20;;
5876;SDS011;2964;42.144;24.730;2023-11-19T09:23:32;5.20;;;5.00;;
5876;SDS011;2964;42.144;24.730;2023-11-19T09:26:04;5.20;;;5.00;;
5876;SDS011;2964;42.144;24.730;2023-11-19T09:28:31;5.13;;;4.87;;
5876;SDS011;2964;42.144;24.730;2023-11-19T09:30:58;4.70;;;4.50;;
5876;SDS011;2964;42.144;24.730;2023-11-19T09:33:25;4.27;;;4.13;;
5876;SDS011;2964;42.144;24.730;2023-11-19T09:35:51;4.30;;;4.10;;
5876;SDS011;2964;42.144;24.730;2023-11-19T09:38:19;4.90;;;4.70;;
5876;SDS011;2964;42.144;24.730;2023-11-19T09:40:46;4.90;;;4.70;;
5876;SDS011;2964;42.144;24.730;2023-11-19T09:43:13;4.77;;;4.47;;
5876;SDS011;2964;42.144;24.730;2023-11-19T09:45:43;4.60;;;4.50;;
5876;SDS011;2964;42.144;24.730;2023-11-19T09:48:15;5.37;;;4.97;;
5876;SDS011;2964;42.144;24.730;2023-11-19T09:50:43;4.70;;;4.40;;
5876;SDS011;2964;42.144;24.730;2023-11-19T09:53:10;4.97;;;4.43;;
5876;SDS011;2964;42.144;24.730;2023-11-19T09:55:38;4.97;;;4.67;;
5876;SDS011;2964;42.144;24.730;2023-11-19T09:58:06;4.93;;;4.27;;
5876;SDS011;2964;42.144;24.730;2023-11-19T10:00:33;5.27;;;5.07;;
5876;SDS011;2964;42.144;24.730;2023-11-19T10:03:00;4.60;;;4.40;;
5876;SDS011;2964;42.144;24.730;2023-11-19T10:05:30;5.23;;;5.03;;
5876;SDS011;2964;42.144;24.730;2023-11-19T10:07:57;4.87;;;4.70;;
5876;SDS011;2964;42.144;24.730;2023-11-19T10:10:24;4.90;;;4.67;;
5876;SDS011;2964;42.144;24.730;2023-11-19T10:12:52;5.43;;;5.23;;
5876;SDS011;2964;42.144;24.730;2023-11-19T10:15:20;4.63;;;4.53;;
5876;SDS011;2964;42.144;24.730;2023-11-19T10:17:49;5.30;;;4.93;;
5876;SDS011;2964;42.144;24.730;2023-11-19T10:20:16;5.03;;;4.73;;
5876;SDS011;2964;42.144;24.730;2023-11-19T10:22:43;4.60;;;4.40;;
5876;SDS011;2964;42.144;24.730;2023-11-19T10:25:21;4.57;;;4.37;;
5876;SDS011;2964;42.144;24.730;2023-11-19T10:27:49;4.37;;;4.17;;
5876;SDS011;2964;42.144;24.730;2023-11-19T10:30:18;4.93;;;4.73;;
5876;SDS011;2964;42.144;24.730;2023-11-19T10:32:57;5.93;;;5.73;;
5876;SDS011;2964;42.144;24.730;2023-11-19T10:35:29;4.97;;;4.77;;
5876;SDS011;2964;42.144;24.730;2023-11-19T10:37:58;4.90;;;4.70;;
5876;SDS011;2964;42.144;24.730;2023-11-19T10:40:31;5.00;;;4.80;;
5876;SDS011;2964;42.144;24.730;2023-11-19T10:43:05;4.60;;;4.40;;
5876;SDS011;2964;42.144;24.730;2023-11-19T10:45:34;4.67;;;4.47;;
5876;SDS011;2964;42.144;24.730;2023-11-19T10:48:02;5.23;;;5.03;;
5876;SDS011;2964;42.144;24.730;2023-11-19T10:50:31;4.70;;;4.50;;
5876;SDS011;2964;42.144;24.730;2023-11-19T10:52:59;4.67;;;4.47;;
5876;SDS011;2964;42.144;24.730;2023-11-19T10:55:26;5.00;;;4.80;;
5876;SDS011;2964;42.144;24.730;2023-11-19T10:57:56;4.83;;;4.53;;
5876;SDS011;2964;42.144;24.730;2023-11-19T11:00:25;5.13;;;4.93;;
5876;SDS011;2964;42.144;24.730;2023-11-19T11:02:58;5.23;;;5.03;;
5876;SDS011;2964;42.144;24.730;2023-11-19T11:05:27;4.83;;;4.53;;
5876;SDS011;2964;42.144;24.730;2023-11-19T11:07:55;4.80;;;4.60;;
5876;SDS011;2964;42.144;24.730;2023-11-19T11:10:23;4.50;;;4.30;;
5876;SDS011;2964;42.144;24.730;2023-11-19T11:12:52;5.63;;;4.97;;
5876;SDS011;2964;42.144;24.730;2023-11-19T11:15:24;5.00;;;4.80;;
5876;SDS011;2964;42.144;24.730;2023-11-19T11:17:54;4.83;;;4.63;;
5876;SDS011;2964;42.144;24.730;2023-11-19T11:20:26;4.60;;;4.50;;
5876;SDS011;2964;42.144;24.730;2023-11-19T11:22:57;4.97;;;4.78;;
5876;SDS011;2964;42.144;24.730;2023-11-19T11:25:38;4.80;;;4.70;;
5876;SDS011;2964;42.144;24.730;2023-11-19T11:28:18;3.87;;;3.77;;
5876;SDS011;2964;42.144;24.730;2023-11-19T11:31:00;4.73;;;4.53;;
5876;SDS011;2964;42.144;24.730;2023-11-19T11:33:41;4.53;;;4.33;;
5876;SDS011;2964;42.144;24.730;2023-11-19T11:36:23;4.97;;;4.77;;
5876;SDS011;2964;42.144;24.730;2023-11-19T11:38:51;4.47;;;4.27;;
5876;SDS011;2964;42.144;24.730;2023-11-19T11:41:19;4.70;;;4.50;;
5876;SDS011;2964;42.144;24.730;2023-11-19T11:43:48;4.97;;;4.43;;
5876;SDS011;2964;42.144;24.730;2023-11-19T11:49:29;4.20;;;4.10;;
5876;SDS011;2964;42.144;24.730;2023-11-19T11:51:57;4.80;;;4.47;;
5876;SDS011;2964;42.144;24.730;2023-11-19T11:54:25;4.57;;;4.37;;
5876;SDS011;2964;42.144;24.730;2023-11-19T11:57:00;4.23;;;4.03;;
5876;SDS011;2964;42.144;24.730;2023-11-19T11:59:31;4.87;;;4.67;;
5876;SDS011;2964;42.144;24.730;2023-11-19T12:02:03;4.70;;;4.50;;
5876;SDS011;2964;42.144;24.730;2023-11-19T12:04:31;6.17;;;4.47;;
5876;SDS011;2964;42.144;24.730;2023-11-19T12:07:04;8.70;;;4.50;;
5876;SDS011;2964;42.144;24.730;2023-11-19T12:09:32;4.60;;;4.40;;
5876;SDS011;2964;42.144;24.730;2023-11-19T12:15:03;4.97;;;4.77;;
5876;SDS011;2964;42.144;24.730;2023-11-19T12:20:20;5.23;;;4.93;;
5876;SDS011;2964;42.144;24.730;2023-11-19T12:22:48;4.90;;;4.67;;
5876;SDS011;2964;42.144;24.730;2023-11-19T12:25:16;4.63;;;4.43;;
5876;SDS011;2964;42.144;24.730;2023-11-19T12:27:45;5.07;;;4.77;;
5876;SDS011;2964;42.144;24.730;2023-11-19T12:30:14;5.10;;;4.90;;
5876;SDS011;2964;42.144;24.730;2023-11-19T12:32:44;5.67;;;5.33;;
5876;SDS011;2964;42.144;24.730;2023-11-19T12:35:12;4.93;;;4.73;;
5876;SDS011;2964;42.144;24.730;2023-11-19T12:37:44;5.27;;;5.07;;
5876;SDS011;2964;42.144;24.730;2023-11-19T12:40:12;5.90;;;5.60;;
5876;SDS011;2964;42.144;24.730;2023-11-19T12:42:41;5.47;;;5.27;;
5876;SDS011;2964;42.144;24.730;2023-11-19T12:45:08;5.40;;;5.10;;
5876;SDS011;2964;42.144;24.730;2023-11-19T12:47:37;5.33;;;5.13;;
5876;SDS011;2964;42.144;24.730;2023-11-19T12:50:04;6.23;;;5.93;;
5876;SDS011;2964;42.144;24.730;2023-11-19T12:52:33;5.50;;;5.30;;
5876;SDS011;2964;42.144;24.730;2023-11-19T12:55:01;5.73;;;5.53;;
5876;SDS011;2964;42.144;24.730;2023-11-19T12:57:38;5.67;;;5.37;;
5876;SDS011;2964;42.144;24.730;2023-11-19T13:00:06;5.40;;;5.20;;
5876;SDS011;2964;42.144;24.730;2023-11-19T13:02:46;5.63;;;5.17;;
5876;SDS011;2964;42.144;24.730;2023-11-19T13:05:20;5.57;;;5.33;;
5876;SDS011;2964;42.144;24.730;2023-11-19T13:07:58;5.30;;;5.10;;
5876;SDS011;2964;42.144;24.730;2023-11-19T13:10:27;5.90;;;5.70;;
5876;SDS011;2964;42.144;24.730;2023-11-19T13:13:01;5.40;;;5.10;;
5876;SDS011;2964;42.144;24.730;2023-11-19T13:15:29;5.47;;;5.20;;
5876;SDS011;2964;42.144;24.730;2023-11-19T13:17:55;5.83;;;5.40;;
5876;SDS011;2964;42.144;24.730;2023-11-19T13:20:22;6.50;;;6.20;;
5876;SDS011;2964;42.144;24.730;2023-11-19T13:22:55;6.07;;;5.83;;
5876;SDS011;2964;42.144;24.730;2023-11-19T13:25:23;5.87;;;5.57;;
5876;SDS011;2964;42.144;24.730;2023-11-19T13:27:51;5.03;;;4.83;;
5876;SDS011;2964;42.144;24.730;2023-11-19T13:30:18;6.27;;;5.67;;
5876;SDS011;2964;42.144;24.730;2023-11-19T13:32:45;5.67;;;5.37;;
5876;SDS011;2964;42.144;24.730;2023-11-19T13:35:12;5.60;;;5.37;;
5876;SDS011;2964;42.144;24.730;2023-11-19T13:37:39;5.60;;;5.40;;
5876;SDS011;2964;42.144;24.730;2023-11-19T13:40:07;5.00;;;4.67;;
5876;SDS011;2964;42.144;24.730;2023-11-19T13:42:35;5.63;;;5.30;;
5876;SDS011;2964;42.144;24.730;2023-11-19T13:45:08;5.47;;;5.27;;
5876;SDS011;2964;42.144;24.730;2023-11-19T13:47:37;5.57;;;5.27;;
5876;SDS011;2964;42.144;24.730;2023-11-19T13:50:06;5.23;;;5.03;;
5876;SDS011;2964;42.144;24.730;2023-11-19T13:52:35;4.90;;;4.70;;
5876;SDS011;2964;42.144;24.730;2023-11-19T13:55:04;5.57;;;5.37;;
5876;SDS011;2964;42.144;24.730;2023-11-19T13:57:32;5.13;;;4.93;;
5876;SDS011;2964;42.144;24.730;2023-11-19T13:59:59;5.13;;;4.93;;
5876;SDS011;2964;42.144;24.730;2023-11-19T14:02:29;6.13;;;5.70;;
5876;SDS011;2964;42.144;24.730;2023-11-19T14:04:55;5.57;;;5.27;;
5876;SDS011;2964;42.144;24.730;2023-11-19T14:07:22;6.07;;;5.77;;
5876;SDS011;2964;42.144;24.730;2023-11-19T14:09:49;5.40;;;5.20;;
5876;SDS011;2964;42.144;24.730;2023-11-19T14:12:16;5.53;;;5.20;;
5876;SDS011;2964;42.144;24.730;2023-11-19T14:14:43;5.27;;;5.07;;
5876;SDS011;2964;42.144;24.730;2023-11-19T14:17:10;6.20;;;5.90;;
5876;SDS011;2964;42.144;24.730;2023-11-19T14:19:39;5.40;;;5.20;;
5876;SDS011;2964;42.144;24.730;2023-11-19T14:22:06;5.50;;;5.20;;
5876;SDS011;2964;42.144;24.730;2023-11-19T14:24:33;5.97;;;5.70;;
5876;SDS011;2964;42.144;24.730;2023-11-19T14:27:00;5.10;;;4.90;;
5876;SDS011;2964;42.144;24.730;2023-11-19T14:29:27;5.83;;;5.53;;
5876;SDS011;2964;42.144;24.730;2023-11-19T14:31:55;5.77;;;5.50;;
5876;SDS011;2964;42.144;24.730;2023-11-19T14:34:21;5.83;;;5.53;;
5876;SDS011;2964;42.144;24.730;2023-11-19T14:36:51;5.47;;;4.97;;
5876;SDS011;2964;42.144;24.730;2023-11-19T14:39:18;6.00;;;5.70;;
5876;SDS011;2964;42.144;24.730;2023-11-19T14:41:45;5.63;;;5.30;;
5876;SDS011;2964;42.144;24.730;2023-11-19T14:44:12;6.03;;;5.63;;
5876;SDS011;2964;42.144;24.730;2023-11-19T14:46:40;6.17;;;5.87;;
5876;SDS011;2964;42.144;24.730;2023-11-19T14:49:07;5.70;;;5.40;;
5876;SDS011;2964;42.144;24.730;2023-11-19T14:51:35;5.63;;;5.43;;
5876;SDS011;2964;42.144;24.730;2023-11-19T14:54:03;5.63;;;5.33;;
5876;SDS011;2964;42.144;24.730;2023-11-19T14:56:30;6.17;;;5.83;;
5876;SDS011;2964;42.144;24.730;2023-11-19T14:58:57;5.87;;;5.33;;
5876;SDS011;2964;42.144;24.730;2023-11-19T15:01:25;6.50;;;5.80;;
5876;SDS011;2964;42.144;24.730;2023-11-19T15:03:53;5.57;;;5.27;;
5876;SDS011;2964;42.144;24.730;2023-11-19T15:06:22;5.60;;;5.30;;
5876;SDS011;2964;42.144;24.730;2023-11-19T15:08:49;5.57;;;5.37;;
5876;SDS011;2964;42.144;24.730;2023-11-19T15:11:18;7.13;;;6.57;;
5876;SDS011;2964;42.144;24.730;2023-11-19T15:13:44;5.27;;;5.07;;